sensor_id;sensor_type;location;lat;lon;timestamp;noise_LAeq;noise_LA_min;noise_LA_max;noise_LA01;noise_LA95
74260;Laerm;62630;55.874;37.516;2023-03-20T00:00:45;57.35;44.34;69.84;;
74260;Laerm;62630;55.874;37.516;2023-03-20T00:03:12;48.24;44.10;55.40;;
74260;Laerm;62630;55.874;37.516;2023-03-20T00:05:38;50.81;45.35;60.06;;
74260;Laerm;62630;55.874;37.516;2023-03-20T00:08:04;53.20;43.79;65.31;;
74260;Laerm;62630;55.874;37.516;2023-03-20T00:10:34;54.21;45.74;64.56;;
74260;Laerm;62630;55.874;37.516;2023-03-20T00:13:01;51.88;44.94;65.78;;
74260;Laerm;62630;55.874;37.516;2023-03-20T00:15:31;50.22;45.02;60.42;;
74260;Laerm;62630;55.874;37.516;2023-03-20T00:17:59;53.54;45.83;68.97;;
74260;Laerm;62630;55.874;37.516;2023-03-20T00:20:25;54.06;43.45;66.60;;
74260;Laerm;62630;55.874;37.516;2023-03-20T00:22:51;53.16;43.79;64.34;;
74260;Laerm;62630;55.874;37.516;2023-03-20T00:25:23;47.89;44.00;53.18;;
74260;Laerm;62630;55.874;37.516;2023-03-20T00:27:49;48.72;45.15;53.57;;
74260;Laerm;62630;55.874;37.516;2023-03-20T00:30:19;54.00;45.25;67.23;;
74260;Laerm;62630;55.874;37.516;2023-03-20T00:32:48;53.38;43.97;67.23;;
74260;Laerm;62630;55.874;37.516;2023-03-20T00:35:22;49.70;44.41;58.91;;
74260;Laerm;62630;55.874;37.516;2023-03-20T00:37:49;50.35;44.29;64.42;;
74260;Laerm;62630;55.874;37.516;2023-03-20T00:40:15;51.65;43.28;66.35;;
74260;Laerm;62630;55.874;37.516;2023-03-20T00:42:43;48.90;44.57;54.88;;
74260;Laerm;62630;55.874;37.516;2023-03-20T00:45:17;48.43;44.98;52.88;;
74260;Laerm;62630;55.874;37.516;2023-03-20T00:47:43;53.01;44.40;69.54;;
74260;Laerm;62630;55.874;37.516;2023-03-20T00:50:25;51.75;44.18;66.61;;
74260;Laerm;62630;55.874;37.516;2023-03-20T00:52:51;51.14;44.64;59.36;;
74260;Laerm;62630;55.874;37.516;2023-03-20T00:55:19;56.00;45.11;65.50;;
74260;Laerm;62630;55.874;37.516;2023-03-20T00:57:58;50.95;44.77;60.79;;
74260;Laerm;62630;55.874;37.516;2023-03-20T01:00:42;50.46;44.96;59.36;;
74260;Laerm;62630;55.874;37.516;2023-03-20T01:03:15;52.81;45.52;63.72;;
74260;Laerm;62630;55.874;37.516;2023-03-20T01:05:41;53.90;46.05;64.92;;
74260;Laerm;62630;55.874;37.516;2023-03-20T01:08:12;53.87;44.75;68.90;;
74260;Laerm;62630;55.874;37.516;2023-03-20T01:10:38;51.23;44.85;63.32;;
74260;Laerm;62630;55.874;37.516;2023-03-20T01:13:12;53.41;43.64;65.52;;
74260;Laerm;62630;55.874;37.516;2023-03-20T01:15:39;51.73;45.69;63.32;;
74260;Laerm;62630;55.874;37.516;2023-03-20T01:18:05;54.31;45.34;68.14;;
74260;Laerm;62630;55.874;37.516;2023-03-20T01:20:33;52.69;44.70;63.89;;
74260;Laerm;62630;55.874;37.516;2023-03-20T01:22:58;52.39;45.18;57.32;;
74260;Laerm;62630;55.874;37.516;2023-03-20T01:25:24;52.01;45.76;60.46;;
74260;Laerm;62630;55.874;37.516;2023-03-20T01:27:52;58.83;46.04;70.33;;
74260;Laerm;62630;55.874;37.516;2023-03-20T01:30:27;64.82;46.47;82.84;;
74260;Laerm;62630;55.874;37.516;2023-03-20T01:32:54;63.00;46.91;88.06;;
74260;Laerm;62630;55.874;37.516;2023-03-20T01:35:21;52.90;46.84;69.72;;
74260;Laerm;62630;55.874;37.516;2023-03-20T01:37:48;64.03;47.83;82.38;;
74260;Laerm;62630;55.874;37.516;2023-03-20T01:42:43;51.49;46.93;59.00;;
74260;Laerm;62630;55.874;37.516;2023-03-20T01:45:16;67.55;46.81;83.47;;
74260;Laerm;62630;55.874;37.516;2023-03-20T01:47:42;55.97;47.66;66.31;;
74260;Laerm;62630;55.874;37.516;2023-03-20T01:52:36;54.03;48.39;64.82;;
74260;Laerm;62630;55.874;37.516;2023-03-20T01:55:02;53.08;48.23;60.47;;
74260;Laerm;62630;55.874;37.516;2023-03-20T01:57:28;58.40;49.67;68.76;;
74260;Laerm;62630;55.874;37.516;2023-03-20T02:00:03;59.52;48.89;69.80;;
74260;Laerm;62630;55.874;37.516;2023-03-20T02:02:31;57.60;49.91;80.99;;
74260;Laerm;62630;55.874;37.516;2023-03-20T02:05:01;57.56;49.57;70.48;;
74260;Laerm;62630;55.874;37.516;2023-03-20T02:07:27;51.73;47.66;57.86;;
74260;Laerm;62630;55.874;37.516;2023-03-20T02:09:54;54.58;48.02;67.72;;
74260;Laerm;62630;55.874;37.516;2023-03-20T02:12:20;54.43;47.42;64.44;;
74260;Laerm;62630;55.874;37.516;2023-03-20T02:14:47;50.79;46.99;56.28;;
74260;Laerm;62630;55.874;37.516;2023-03-20T02:17:13;55.07;47.73;67.79;;
74260;Laerm;62630;55.874;37.516;2023-03-20T02:25:17;58.42;48.66;75.34;;
74260;Laerm;62630;55.874;37.516;2023-03-20T02:39:32;55.67;48.80;67.56;;
74260;Laerm;62630;55.874;37.516;2023-03-20T02:44:43;64.21;49.59;75.89;;
74260;Laerm;62630;55.874;37.516;2023-03-20T02:47:20;59.58;48.80;68.55;;
74260;Laerm;62630;55.874;37.516;2023-03-20T02:58:41;58.66;49.80;68.73;;
74260;Laerm;62630;55.874;37.516;2023-03-20T03:01:03;63.75;51.55;75.25;;
74260;Laerm;62630;55.874;37.516;2023-03-20T03:03:38;59.91;49.86;72.16;;
74260;Laerm;62630;55.874;37.516;2023-03-20T03:06:21;63.01;51.29;78.66;;
74260;Laerm;62630;55.874;37.516;2023-03-20T03:09:00;58.57;49.72;70.87;;
74260;Laerm;62630;55.874;37.516;2023-03-20T03:11:27;62.20;51.50;82.70;;
74260;Laerm;62630;55.874;37.516;2023-03-20T03:13:54;58.65;49.92;71.86;;
74260;Laerm;62630;55.874;37.516;2023-03-20T03:16:30;58.01;51.08;67.39;;
74260;Laerm;62630;55.874;37.516;2023-03-20T03:19:08;62.10;49.77;82.50;;
74260;Laerm;62630;55.874;37.516;2023-03-20T03:21:39;70.92;51.32;88.24;;
74260;Laerm;62630;55.874;37.516;2023-03-20T03:24:15;60.55;51.57;77.53;;
74260;Laerm;62630;55.874;37.516;2023-03-20T03:26:44;60.43;50.45;71.58;;
74260;Laerm;62630;55.874;37.516;2023-03-20T03:29:15;61.16;51.10;73.07;;
74260;Laerm;62630;55.874;37.516;2023-03-20T03:31:43;63.47;52.68;73.47;;
74260;Laerm;62630;55.874;37.516;2023-03-20T03:34:15;60.80;52.96;68.69;;
74260;Laerm;62630;55.874;37.516;2023-03-20T03:37:01;62.52;53.95;70.27;;
74260;Laerm;62630;55.874;37.516;2023-03-20T03:39:50;60.01;52.54;68.91;;
74260;Laerm;62630;55.874;37.516;2023-03-20T03:42:23;60.20;52.55;75.36;;
74260;Laerm;62630;55.874;37.516;2023-03-20T03:50:10;60.70;52.85;70.05;;
74260;Laerm;62630;55.874;37.516;2023-03-20T03:52:40;67.27;53.73;81.64;;
74260;Laerm;62630;55.874;37.516;2023-03-20T03:55:10;62.31;53.60;72.74;;
74260;Laerm;62630;55.874;37.516;2023-03-20T03:57:59;64.65;54.15;79.47;;
74260;Laerm;62630;55.874;37.516;2023-03-20T04:00:27;66.86;55.59;79.42;;
74260;Laerm;62630;55.874;37.516;2023-03-20T04:02:56;63.48;55.46;79.64;;
74260;Laerm;62630;55.874;37.516;2023-03-20T04:05:27;64.89;56.30;74.77;;
74260;Laerm;62630;55.874;37.516;2023-03-20T04:08:01;64.66;54.92;74.31;;
74260;Laerm;62630;55.874;37.516;2023-03-20T04:10:30;63.61;54.50;74.41;;
74260;Laerm;62630;55.874;37.516;2023-03-20T04:12:56;64.11;54.39;75.80;;
74260;Laerm;62630;55.874;37.516;2023-03-20T04:15:21;68.13;56.12;83.26;;
74260;Laerm;62630;55.874;37.516;2023-03-20T04:17:47;73.05;56.31;89.91;;
74260;Laerm;62630;55.874;37.516;2023-03-20T04:20:13;66.16;54.75;78.53;;
74260;Laerm;62630;55.874;37.516;2023-03-20T04:22:40;62.65;56.12;69.98;;
74260;Laerm;62630;55.874;37.516;2023-03-20T04:25:07;64.87;54.61;74.23;;
74260;Laerm;62630;55.874;37.516;2023-03-20T04:27:33;64.43;53.87;77.25;;
74260;Laerm;62630;55.874;37.516;2023-03-20T04:29:59;64.52;53.97;73.52;;
74260;Laerm;62630;55.874;37.516;2023-03-20T04:32:27;63.61;54.41;71.60;;
74260;Laerm;62630;55.874;37.516;2023-03-20T04:34:53;65.52;54.27;81.68;;
74260;Laerm;62630;55.874;37.516;2023-03-20T04:37:19;64.52;56.89;72.69;;
74260;Laerm;62630;55.874;37.516;2023-03-20T04:39:44;62.47;54.76;82.05;;
74260;Laerm;62630;55.874;37.516;2023-03-20T04:42:10;64.05;57.20;72.08;;
74260;Laerm;62630;55.874;37.516;2023-03-20T04:44:36;63.66;55.42;72.94;;
74260;Laerm;62630;55.874;37.516;2023-03-20T04:47:01;63.10;54.91;70.40;;
74260;Laerm;62630;55.874;37.516;2023-03-20T04:49:27;70.49;57.19;89.03;;
74260;Laerm;62630;55.874;37.516;2023-03-20T04:51:53;65.76;58.23;81.03;;
74260;Laerm;62630;55.874;37.516;2023-03-20T04:54:19;62.69;53.37;71.44;;
74260;Laerm;62630;55.874;37.516;2023-03-20T04:56:45;66.22;58.36;73.62;;
74260;Laerm;62630;55.874;37.516;2023-03-20T04:59:11;65.34;57.42;73.18;;
74260;Laerm;62630;55.874;37.516;2023-03-20T05:01:36;64.46;53.38;72.67;;
74260;Laerm;62630;55.874;37.516;2023-03-20T05:04:04;65.47;57.28;74.20;;
74260;Laerm;62630;55.874;37.516;2023-03-20T05:06:30;63.89;54.49;71.77;;
74260;Laerm;62630;55.874;37.516;2023-03-20T05:08:57;64.00;54.82;70.98;;
74260;Laerm;62630;55.874;37.516;2023-03-20T05:11:27;65.25;54.03;72.71;;
74260;Laerm;62630;55.874;37.516;2023-03-20T05:13:53;66.20;58.66;80.30;;
74260;Laerm;62630;55.874;37.516;2023-03-20T05:16:18;65.01;58.20;72.62;;
74260;Laerm;62630;55.874;37.516;2023-03-20T05:18:44;63.69;56.91;71.99;;
74260;Laerm;62630;55.874;37.516;2023-03-20T05:21:10;64.18;55.92;70.68;;
74260;Laerm;62630;55.874;37.516;2023-03-20T05:23:35;66.03;56.81;75.25;;
74260;Laerm;62630;55.874;37.516;2023-03-20T05:26:01;64.89;54.59;75.44;;
74260;Laerm;62630;55.874;37.516;2023-03-20T05:28:27;69.46;57.27;77.64;;
74260;Laerm;62630;55.874;37.516;2023-03-20T05:30:53;69.29;58.55;77.80;;
74260;Laerm;62630;55.874;37.516;2023-03-20T05:33:19;64.86;57.34;71.59;;
74260;Laerm;62630;55.874;37.516;2023-03-20T05:35:45;67.77;55.78;80.54;;
74260;Laerm;62630;55.874;37.516;2023-03-20T05:38:10;64.84;56.00;72.79;;
74260;Laerm;62630;55.874;37.516;2023-03-20T05:40:36;65.11;55.56;78.08;;
74260;Laerm;62630;55.874;37.516;2023-03-20T05:43:01;63.14;50.79;76.40;;
74260;Laerm;62630;55.874;37.516;2023-03-20T05:45:27;64.19;52.07;71.80;;
74260;Laerm;62630;55.874;37.516;2023-03-20T05:47:53;62.73;52.20;73.33;;
74260;Laerm;62630;55.874;37.516;2023-03-20T05:50:18;62.64;51.97;71.72;;
74260;Laerm;62630;55.874;37.516;2023-03-20T05:52:47;65.30;55.75;75.91;;
74260;Laerm;62630;55.874;37.516;2023-03-20T05:55:16;62.25;54.92;78.54;;
74260;Laerm;62630;55.874;37.516;2023-03-20T05:57:42;64.76;55.39;72.54;;
74260;Laerm;62630;55.874;37.516;2023-03-20T06:00:08;63.59;51.43;72.43;;
74260;Laerm;62630;55.874;37.516;2023-03-20T06:02:37;68.85;54.79;85.04;;
74260;Laerm;62630;55.874;37.516;2023-03-20T06:05:03;66.17;57.02;77.67;;
74260;Laerm;62630;55.874;37.516;2023-03-20T06:07:28;63.19;54.91;72.95;;
74260;Laerm;62630;55.874;37.516;2023-03-20T06:09:54;69.09;57.44;77.65;;
74260;Laerm;62630;55.874;37.516;2023-03-20T06:12:20;66.82;52.39;82.44;;
74260;Laerm;62630;55.874;37.516;2023-03-20T06:14:46;66.02;53.65;82.20;;
74260;Laerm;62630;55.874;37.516;2023-03-20T06:17:12;68.32;57.13;78.06;;
74260;Laerm;62630;55.874;37.516;2023-03-20T06:19:38;63.10;53.96;71.24;;
74260;Laerm;62630;55.874;37.516;2023-03-20T06:22:04;61.74;51.90;70.17;;
74260;Laerm;62630;55.874;37.516;2023-03-20T06:24:29;63.88;51.32;77.78;;
74260;Laerm;62630;55.874;37.516;2023-03-20T06:26:55;62.39;52.40;71.25;;
74260;Laerm;62630;55.874;37.516;2023-03-20T06:29:21;64.16;53.66;76.67;;
74260;Laerm;62630;55.874;37.516;2023-03-20T06:31:46;63.91;55.59;71.12;;
74260;Laerm;62630;55.874;37.516;2023-03-20T06:34:12;63.96;53.67;72.37;;
74260;Laerm;62630;55.874;37.516;2023-03-20T06:36:38;64.61;56.05;79.64;;
74260;Laerm;62630;55.874;37.516;2023-03-20T06:39:04;63.10;52.66;74.59;;
74260;Laerm;62630;55.874;37.516;2023-03-20T06:41:29;65.77;50.50;83.63;;
74260;Laerm;62630;55.874;37.516;2023-03-20T06:43:55;68.80;51.37;85.53;;
74260;Laerm;62630;55.874;37.516;2023-03-20T06:46:20;64.75;55.01;73.61;;
74260;Laerm;62630;55.874;37.516;2023-03-20T06:48:47;63.09;51.58;74.23;;
74260;Laerm;62630;55.874;37.516;2023-03-20T06:51:13;64.25;54.93;74.02;;
74260;Laerm;62630;55.874;37.516;2023-03-20T06:53:39;64.12;53.76;72.69;;
74260;Laerm;62630;55.874;37.516;2023-03-20T06:56:09;64.84;51.95;76.85;;
74260;Laerm;62630;55.874;37.516;2023-03-20T06:58:35;64.31;50.41;74.08;;
74260;Laerm;62630;55.874;37.516;2023-03-20T07:01:00;66.55;54.07;80.82;;
74260;Laerm;62630;55.874;37.516;2023-03-20T07:03:26;63.12;50.40;73.31;;
74260;Laerm;62630;55.874;37.516;2023-03-20T07:05:52;61.67;52.52;71.04;;
74260;Laerm;62630;55.874;37.516;2023-03-20T07:08:18;60.29;50.96;70.18;;
74260;Laerm;62630;55.874;37.516;2023-03-20T07:10:43;64.21;53.54;71.59;;
74260;Laerm;62630;55.874;37.516;2023-03-20T07:13:09;64.66;53.07;85.67;;
74260;Laerm;62630;55.874;37.516;2023-03-20T07:15:36;63.47;52.38;75.57;;
74260;Laerm;62630;55.874;37.516;2023-03-20T07:18:01;70.39;52.73;90.58;;
74260;Laerm;62630;55.874;37.516;2023-03-20T07:20:27;66.52;53.69;83.29;;
74260;Laerm;62630;55.874;37.516;2023-03-20T07:22:52;62.51;49.84;73.13;;
74260;Laerm;62630;55.874;37.516;2023-03-20T07:25:19;64.65;53.80;83.47;;
74260;Laerm;62630;55.874;37.516;2023-03-20T07:27:45;67.38;52.13;81.67;;
74260;Laerm;62630;55.874;37.516;2023-03-20T07:30:16;63.77;52.46;75.47;;
74260;Laerm;62630;55.874;37.516;2023-03-20T07:32:42;64.37;52.52;76.06;;
74260;Laerm;62630;55.874;37.516;2023-03-20T07:35:08;64.89;56.06;74.17;;
74260;Laerm;62630;55.874;37.516;2023-03-20T07:37:34;61.29;51.09;70.80;;
74260;Laerm;62630;55.874;37.516;2023-03-20T07:40:00;62.75;51.32;70.18;;
74260;Laerm;62630;55.874;37.516;2023-03-20T07:42:25;64.56;53.95;73.52;;
74260;Laerm;62630;55.874;37.516;2023-03-20T07:44:51;63.50;52.22;73.10;;
74260;Laerm;62630;55.874;37.516;2023-03-20T07:47:16;59.72;49.53;74.00;;
74260;Laerm;62630;55.874;37.516;2023-03-20T07:49:42;65.78;55.73;79.06;;
74260;Laerm;62630;55.874;37.516;2023-03-20T07:52:08;63.18;52.16;71.14;;
74260;Laerm;62630;55.874;37.516;2023-03-20T07:54:33;63.04;53.45;75.53;;
74260;Laerm;62630;55.874;37.516;2023-03-20T07:57:01;63.80;54.72;76.65;;
74260;Laerm;62630;55.874;37.516;2023-03-20T07:59:27;64.23;51.98;77.86;;
74260;Laerm;62630;55.874;37.516;2023-03-20T08:01:53;63.55;51.33;71.77;;
74260;Laerm;62630;55.874;37.516;2023-03-20T08:04:19;58.81;49.68;69.38;;
74260;Laerm;62630;55.874;37.516;2023-03-20T08:06:56;63.37;50.26;82.53;;
74260;Laerm;62630;55.874;37.516;2023-03-20T08:09:22;62.82;51.47;74.62;;
74260;Laerm;62630;55.874;37.516;2023-03-20T08:11:47;63.40;51.44;85.07;;
74260;Laerm;62630;55.874;37.516;2023-03-20T08:14:13;62.23;52.88;76.25;;
74260;Laerm;62630;55.874;37.516;2023-03-20T08:16:38;60.60;49.53;69.96;;
74260;Laerm;62630;55.874;37.516;2023-03-20T08:19:04;62.10;49.86;73.17;;
74260;Laerm;62630;55.874;37.516;2023-03-20T08:21:31;68.66;55.83;78.46;;
74260;Laerm;62630;55.874;37.516;2023-03-20T08:23:57;61.19;50.22;70.66;;
74260;Laerm;62630;55.874;37.516;2023-03-20T08:26:23;62.83;53.28;72.31;;
74260;Laerm;62630;55.874;37.516;2023-03-20T08:28:50;61.48;51.34;69.56;;
74260;Laerm;62630;55.874;37.516;2023-03-20T08:31:16;63.83;52.88;80.14;;
74260;Laerm;62630;55.874;37.516;2023-03-20T08:33:43;64.05;52.30;71.22;;
74260;Laerm;62630;55.874;37.516;2023-03-20T08:36:09;63.77;50.60;75.01;;
74260;Laerm;62630;55.874;37.516;2023-03-20T08:38:35;63.53;52.86;71.36;;
74260;Laerm;62630;55.874;37.516;2023-03-20T08:41:02;63.37;54.53;72.01;;
74260;Laerm;62630;55.874;37.516;2023-03-20T08:43:28;64.01;51.61;71.85;;
74260;Laerm;62630;55.874;37.516;2023-03-20T08:45:54;63.54;50.56;72.69;;
74260;Laerm;62630;55.874;37.516;2023-03-20T08:48:19;61.79;52.36;72.20;;
74260;Laerm;62630;55.874;37.516;2023-03-20T08:50:45;72.04;54.69;88.31;;
74260;Laerm;62630;55.874;37.516;2023-03-20T08:53:10;69.39;56.67;92.93;;
74260;Laerm;62630;55.874;37.516;2023-03-20T08:55:36;66.36;55.10;79.50;;
74260;Laerm;62630;55.874;37.516;2023-03-20T08:58:02;63.32;53.76;78.31;;
74260;Laerm;62630;55.874;37.516;2023-03-20T09:00:28;64.20;54.00;78.61;;
74260;Laerm;62630;55.874;37.516;2023-03-20T09:02:53;63.40;54.43;73.55;;
74260;Laerm;62630;55.874;37.516;2023-03-20T09:05:19;66.10;54.60;88.00;;
74260;Laerm;62630;55.874;37.516;2023-03-20T09:07:44;65.90;51.43;87.93;;
74260;Laerm;62630;55.874;37.516;2023-03-20T09:10:11;62.86;53.56;74.50;;
74260;Laerm;62630;55.874;37.516;2023-03-20T09:12:37;67.09;55.82;81.22;;
74260;Laerm;62630;55.874;37.516;2023-03-20T09:15:04;63.60;54.81;71.85;;
74260;Laerm;62630;55.874;37.516;2023-03-20T09:17:31;62.43;52.74;73.40;;
74260;Laerm;62630;55.874;37.516;2023-03-20T09:19:57;65.03;55.04;73.14;;
74260;Laerm;62630;55.874;37.516;2023-03-20T09:22:22;63.25;53.05;77.77;;
74260;Laerm;62630;55.874;37.516;2023-03-20T09:24:48;66.20;53.28;85.61;;
74260;Laerm;62630;55.874;37.516;2023-03-20T09:27:13;65.26;51.59;78.75;;
74260;Laerm;62630;55.874;37.516;2023-03-20T09:29:40;64.28;52.33;72.18;;
74260;Laerm;62630;55.874;37.516;2023-03-20T09:32:06;63.95;51.44;72.23;;
74260;Laerm;62630;55.874;37.516;2023-03-20T09:34:35;66.61;52.83;79.93;;
74260;Laerm;62630;55.874;37.516;2023-03-20T09:37:00;61.18;49.75;73.72;;
74260;Laerm;62630;55.874;37.516;2023-03-20T09:39:27;67.37;50.93;84.04;;
74260;Laerm;62630;55.874;37.516;2023-03-20T09:41:53;63.48;52.98;79.63;;
74260;Laerm;62630;55.874;37.516;2023-03-20T09:47:46;69.37;51.32;85.18;;
74260;Laerm;62630;55.874;37.516;2023-03-20T09:50:23;63.81;51.06;74.31;;
74260;Laerm;62630;55.874;37.516;2023-03-20T09:53:14;63.86;52.28;81.02;;
74260;Laerm;62630;55.874;37.516;2023-03-20T09:55:49;61.29;50.76;73.53;;
74260;Laerm;62630;55.874;37.516;2023-03-20T09:58:23;64.68;55.45;77.13;;
74260;Laerm;62630;55.874;37.516;2023-03-20T10:00:50;68.91;54.27;80.17;;
74260;Laerm;62630;55.874;37.516;2023-03-20T10:03:27;63.50;50.82;72.73;;
74260;Laerm;62630;55.874;37.516;2023-03-20T10:05:59;62.54;51.65;73.80;;
74260;Laerm;62630;55.874;37.516;2023-03-20T10:08:34;62.44;50.82;71.56;;
74260;Laerm;62630;55.874;37.516;2023-03-20T10:13:56;62.22;54.04;69.87;;
74260;Laerm;62630;55.874;37.516;2023-03-20T10:19:27;65.79;54.38;75.93;;
74260;Laerm;62630;55.874;37.516;2023-03-20T10:22:21;64.16;51.27;75.01;;
74260;Laerm;62630;55.874;37.516;2023-03-20T10:25:14;63.66;52.29;76.23;;
74260;Laerm;62630;55.874;37.516;2023-03-20T10:27:46;64.33;55.05;79.94;;
74260;Laerm;62630;55.874;37.516;2023-03-20T10:38:38;64.03;52.43;73.22;;
74260;Laerm;62630;55.874;37.516;2023-03-20T10:41:15;61.99;51.62;71.30;;
74260;Laerm;62630;55.874;37.516;2023-03-20T10:43:44;61.53;51.28;70.93;;
74260;Laerm;62630;55.874;37.516;2023-03-20T10:46:18;64.26;53.28;72.76;;
74260;Laerm;62630;55.874;37.516;2023-03-20T10:49:10;65.75;50.37;84.33;;
74260;Laerm;62630;55.874;37.516;2023-03-20T10:51:43;63.20;54.30;77.10;;
74260;Laerm;62630;55.874;37.516;2023-03-20T10:54:34;62.31;50.03;70.40;;
74260;Laerm;62630;55.874;37.516;2023-03-20T10:57:02;62.77;55.43;74.63;;
74260;Laerm;62630;55.874;37.516;2023-03-20T10:59:51;62.91;52.91;71.98;;
74260;Laerm;62630;55.874;37.516;2023-03-20T11:02:21;70.27;54.84;86.83;;
74260;Laerm;62630;55.874;37.516;2023-03-20T11:04:47;65.14;50.93;91.21;;
74260;Laerm;62630;55.874;37.516;2023-03-20T11:12:48;63.70;49.98;71.11;;
74260;Laerm;62630;55.874;37.516;2023-03-20T11:15:33;63.11;51.92;77.77;;
74260;Laerm;62630;55.874;37.516;2023-03-20T11:18:01;62.88;52.64;72.70;;
74260;Laerm;62630;55.874;37.516;2023-03-20T11:20:37;63.93;50.85;74.75;;
74260;Laerm;62630;55.874;37.516;2023-03-20T11:23:04;63.47;52.58;73.00;;
74260;Laerm;62630;55.874;37.516;2023-03-20T11:25:37;66.84;55.29;86.49;;
74260;Laerm;62630;55.874;37.516;2023-03-20T11:33:44;63.59;52.90;72.74;;
74260;Laerm;62630;55.874;37.516;2023-03-20T11:38:49;66.32;53.11;83.41;;
74260;Laerm;62630;55.874;37.516;2023-03-20T11:41:22;64.37;52.49;76.62;;
74260;Laerm;62630;55.874;37.516;2023-03-20T11:43:48;66.07;52.04;79.78;;
74260;Laerm;62630;55.874;37.516;2023-03-20T11:46:14;63.32;53.80;71.54;;
74260;Laerm;62630;55.874;37.516;2023-03-20T11:48:42;64.66;51.29;79.85;;
74260;Laerm;62630;55.874;37.516;2023-03-20T11:51:18;65.16;52.34;82.93;;
74260;Laerm;62630;55.874;37.516;2023-03-20T11:56:20;64.47;52.92;77.66;;
74260;Laerm;62630;55.874;37.516;2023-03-20T12:01:21;64.35;50.38;73.74;;
74260;Laerm;62630;55.874;37.516;2023-03-20T12:04:10;62.99;52.84;70.44;;
74260;Laerm;62630;55.874;37.516;2023-03-20T12:09:47;68.89;54.22;82.54;;
74260;Laerm;62630;55.874;37.516;2023-03-20T12:12:41;64.21;52.37;84.67;;
74260;Laerm;62630;55.874;37.516;2023-03-20T12:26:04;62.74;54.06;73.08;;
74260;Laerm;62630;55.874;37.516;2023-03-20T12:28:38;65.80;53.52;81.71;;
74260;Laerm;62630;55.874;37.516;2023-03-20T12:34:13;63.48;52.25;72.45;;
74260;Laerm;62630;55.874;37.516;2023-03-20T12:36:43;62.67;51.24;74.49;;
74260;Laerm;62630;55.874;37.516;2023-03-20T12:39:26;64.38;53.95;79.63;;
74260;Laerm;62630;55.874;37.516;2023-03-20T12:42:25;62.66;50.13;73.89;;
74260;Laerm;62630;55.874;37.516;2023-03-20T12:44:57;63.18;52.17;75.83;;
74260;Laerm;62630;55.874;37.516;2023-03-20T12:52:57;62.30;52.31;69.14;;
74260;Laerm;62630;55.874;37.516;2023-03-20T13:17:36;65.53;54.11;86.88;;
74260;Laerm;62630;55.874;37.516;2023-03-20T13:20:15;63.49;52.68;74.50;;
74260;Laerm;62630;55.874;37.516;2023-03-20T13:28:29;62.73;52.05;72.52;;
74260;Laerm;62630;55.874;37.516;2023-03-20T13:37:17;64.04;54.51;75.47;;
74260;Laerm;62630;55.874;37.516;2023-03-20T13:39:47;62.08;50.48;73.78;;
74260;Laerm;62630;55.874;37.516;2023-03-20T13:42:20;69.99;57.97;86.72;;
74260;Laerm;62630;55.874;37.516;2023-03-20T13:44:48;64.03;53.63;73.33;;
74260;Laerm;62630;55.874;37.516;2023-03-20T13:47:21;64.28;57.00;71.39;;
74260;Laerm;62630;55.874;37.516;2023-03-20T13:52:20;62.18;52.66;69.24;;
74260;Laerm;62630;55.874;37.516;2023-03-20T13:54:53;65.31;52.32;76.08;;
74260;Laerm;62630;55.874;37.516;2023-03-20T14:03:07;63.99;53.56;74.79;;
74260;Laerm;62630;55.874;37.516;2023-03-20T14:05:39;64.48;50.54;74.19;;
74260;Laerm;62630;55.874;37.516;2023-03-20T14:11:23;67.26;57.90;81.95;;
74260;Laerm;62630;55.874;37.516;2023-03-20T14:14:02;71.13;57.00;86.22;;
74260;Laerm;62630;55.874;37.516;2023-03-20T14:16:31;64.97;54.87;76.72;;
74260;Laerm;62630;55.874;37.516;2023-03-20T14:19:15;64.93;56.65;75.37;;
74260;Laerm;62630;55.874;37.516;2023-03-20T14:21:46;69.63;57.98;85.52;;
74260;Laerm;62630;55.874;37.516;2023-03-20T14:24:14;71.26;56.57;87.10;;
74260;Laerm;62630;55.874;37.516;2023-03-20T14:26:42;67.14;56.12;83.02;;
74260;Laerm;62630;55.874;37.516;2023-03-20T14:31:38;66.32;58.73;76.38;;
74260;Laerm;62630;55.874;37.516;2023-03-20T14:36:51;65.82;56.40;76.44;;
74260;Laerm;62630;55.874;37.516;2023-03-20T14:44:29;71.96;63.04;88.19;;
74260;Laerm;62630;55.874;37.516;2023-03-20T14:47:04;73.05;61.46;93.96;;
74260;Laerm;62630;55.874;37.516;2023-03-20T14:52:34;69.41;62.03;80.72;;
74260;Laerm;62630;55.874;37.516;2023-03-20T14:57:42;67.82;61.42;75.08;;
74260;Laerm;62630;55.874;37.516;2023-03-20T15:00:20;69.77;59.26;87.12;;
74260;Laerm;62630;55.874;37.516;2023-03-20T15:03:08;69.53;53.00;85.43;;
74260;Laerm;62630;55.874;37.516;2023-03-20T15:05:37;64.00;55.70;70.12;;
74260;Laerm;62630;55.874;37.516;2023-03-20T15:08:06;64.35;53.32;73.01;;
74260;Laerm;62630;55.874;37.516;2023-03-20T15:10:34;63.37;53.70;71.02;;
74260;Laerm;62630;55.874;37.516;2023-03-20T15:13:04;72.77;53.92;91.99;;
74260;Laerm;62630;55.874;37.516;2023-03-20T15:15:33;65.40;55.38;78.83;;
74260;Laerm;62630;55.874;37.516;2023-03-20T15:18:05;64.36;56.02;72.23;;
74260;Laerm;62630;55.874;37.516;2023-03-20T15:20:35;65.27;53.13;76.28;;
74260;Laerm;62630;55.874;37.516;2023-03-20T15:23:02;64.03;54.76;75.70;;
74260;Laerm;62630;55.874;37.516;2023-03-20T15:25:44;66.05;55.76;77.14;;
74260;Laerm;62630;55.874;37.516;2023-03-20T15:28:16;67.14;58.30;76.83;;
74260;Laerm;62630;55.874;37.516;2023-03-20T15:30:44;65.14;56.48;78.94;;
74260;Laerm;62630;55.874;37.516;2023-03-20T15:33:26;65.97;58.31;74.81;;
74260;Laerm;62630;55.874;37.516;2023-03-20T15:35:54;65.32;55.89;84.38;;
74260;Laerm;62630;55.874;37.516;2023-03-20T15:38:27;64.60;54.06;72.89;;
74260;Laerm;62630;55.874;37.516;2023-03-20T15:40:54;64.51;55.93;72.94;;
74260;Laerm;62630;55.874;37.516;2023-03-20T15:43:24;66.49;56.38;83.00;;
74260;Laerm;62630;55.874;37.516;2023-03-20T15:45:51;64.12;56.94;71.91;;
74260;Laerm;62630;55.874;37.516;2023-03-20T15:48:21;64.39;54.78;70.86;;
74260;Laerm;62630;55.874;37.516;2023-03-20T15:50:56;63.51;53.93;70.76;;
74260;Laerm;62630;55.874;37.516;2023-03-20T15:53:28;63.30;56.43;69.25;;
74260;Laerm;62630;55.874;37.516;2023-03-20T15:58:29;67.07;57.67;82.00;;
74260;Laerm;62630;55.874;37.516;2023-03-20T16:00:58;69.24;60.20;89.29;;
74260;Laerm;62630;55.874;37.516;2023-03-20T16:03:26;63.52;54.95;73.33;;
74260;Laerm;62630;55.874;37.516;2023-03-20T16:05:53;61.75;54.28;71.31;;
74260;Laerm;62630;55.874;37.516;2023-03-20T16:08:30;63.04;52.98;71.78;;
74260;Laerm;62630;55.874;37.516;2023-03-20T16:10:58;63.59;55.52;73.40;;
74260;Laerm;62630;55.874;37.516;2023-03-20T16:13:28;64.57;56.17;75.21;;
74260;Laerm;62630;55.874;37.516;2023-03-20T16:15:56;64.88;56.87;70.89;;
74260;Laerm;62630;55.874;37.516;2023-03-20T16:18:22;70.30;53.23;86.66;;
74260;Laerm;62630;55.874;37.516;2023-03-20T16:21:00;64.02;56.25;71.60;;
74260;Laerm;62630;55.874;37.516;2023-03-20T16:23:33;63.91;54.79;71.83;;
74260;Laerm;62630;55.874;37.516;2023-03-20T16:26:04;63.46;53.07;70.75;;